Terminal Aerodrome Forecast
Issued by NWS Duluth, MN

Home | Current Version | Previous Version | Text Only | Print | Product List | Glossary On
Versions: 1 2 3 4 5 6 7 8 9 10 11 12 13 14 15 16 17 18 19 20 21 22 23 24 25 26 27 28 29 30 31 32 33 34 35 36 37 38 39 40 41 42
000
FTUS43 KDLH 012200 AAA
TAFDLH
TAF AMD
KDLH 012225Z 0122/0218 14008KT 3SM BR OVC003
     FM012300 14006KT 2SM -DZ BR OVC003
     FM020400 18004KT 3/4SM -DZ BR OVC002
     FM021300 27004KT 2SM BR OVC004
     FM021400 29004KT 4SM BR BKN025
     FM021600 27005KT P6SM BKN050=

USA.gov is the U.S. government's official web portal to all federal, state and local government web resources and services.